X  Tanca Dades meteorològiques de l'aviació METAR     LBPD Plovdiv International Airport
Temperatura
75°F Temperatura
66°F Rosada
74% Humitat



Vent
5 MPH
8 KM/H
2 M/S
4 NUS



290°
ONO
Condicions actuals

Sense núvols Sense núvols
Pressió 1011.85 (hPa) - 29.88 (inHg)
Visibilitat 6 (milla) - 9.7 (km)
Aeroport
Codi aeroport LBPD

Ubicació: Plovdiv International Airport
Distància: 14 (mi)

Metar:
LBPD 200500Z AUTO 29004KT 9999 NCD 24/19 Q1012 NOSIG

Temps: 20-07-2024 08:00 EEST